createdAt,value
2017-07-05T00:01:53.207Z,16.70
2017-07-05T00:04:20.653Z,16.60
2017-07-05T00:06:48.107Z,16.70
2017-07-05T00:09:15.557Z,16.60
2017-07-05T00:11:43.013Z,16.60
2017-07-05T00:14:10.454Z,16.60
2017-07-05T00:16:37.935Z,16.60
2017-07-05T00:19:05.375Z,16.60
2017-07-05T00:21:32.819Z,16.60
2017-07-05T00:24:00.254Z,16.50
2017-07-05T00:26:28.487Z,16.40
2017-07-05T00:28:55.931Z,16.40
2017-07-05T00:31:23.373Z,16.40
2017-07-05T00:33:50.814Z,16.40
2017-07-05T00:36:18.259Z,16.50
2017-07-05T00:38:46.471Z,16.70
2017-07-05T00:41:13.916Z,16.70
2017-07-05T00:43:41.364Z,16.70
2017-07-05T00:46:08.810Z,16.80
2017-07-05T00:48:36.259Z,16.70
2017-07-05T00:51:04.473Z,16.60
2017-07-05T00:53:31.940Z,16.60
2017-07-05T00:55:59.380Z,16.60
2017-07-05T00:58:26.823Z,16.70
2017-07-05T01:00:54.272Z,16.70
2017-07-05T01:03:21.712Z,16.60
2017-07-05T01:05:49.924Z,16.80
2017-07-05T01:08:17.369Z,16.80
2017-07-05T01:10:44.811Z,16.60
2017-07-05T01:13:12.252Z,16.50
2017-07-05T01:15:40.469Z,16.40
2017-07-05T01:18:07.925Z,16.30
2017-07-05T01:20:35.379Z,16.30
2017-07-05T01:23:02.819Z,16.40
2017-07-05T01:25:30.256Z,16.30
2017-07-05T01:27:58.467Z,16.40
2017-07-05T01:30:25.913Z,16.40
2017-07-05T01:32:53.356Z,16.60
2017-07-05T01:35:20.799Z,16.70
2017-07-05T01:37:49.008Z,16.60
2017-07-05T01:40:16.448Z,16.60
2017-07-05T01:42:43.891Z,16.70
2017-07-05T01:45:11.323Z,16.60
2017-07-05T01:47:39.550Z,16.70
2017-07-05T01:50:06.991Z,16.70
2017-07-05T01:52:34.459Z,16.60
2017-07-05T01:55:01.903Z,16.50
2017-07-05T01:57:29.344Z,16.50
2017-07-05T01:59:56.790Z,16.40
2017-07-05T02:02:25.005Z,16.40
2017-07-05T02:04:52.456Z,16.40
2017-07-05T02:07:19.896Z,16.30
2017-07-05T02:09:47.343Z,16.20
2017-07-05T02:12:14.783Z,16.20
2017-07-05T02:14:43.000Z,16.00
2017-07-05T02:17:10.443Z,16.00
2017-07-05T02:19:37.892Z,15.90
2017-07-05T02:22:05.326Z,16.20
2017-07-05T02:24:33.564Z,16.00
2017-07-05T02:27:01.802Z,16.00
2017-07-05T02:29:29.244Z,15.90
2017-07-05T02:31:56.690Z,16.00
2017-07-05T02:34:24.951Z,15.90
2017-07-05T02:36:52.395Z,15.90
2017-07-05T02:39:19.840Z,15.80
2017-07-05T02:41:47.291Z,15.70
2017-07-05T02:44:14.735Z,15.70
2017-07-05T02:46:42.186Z,15.60
2017-07-05T02:49:09.615Z,15.50
2017-07-05T02:51:37.096Z,15.50
2017-07-05T02:54:04.552Z,15.70
2017-07-05T02:56:31.995Z,15.60
2017-07-05T02:58:59.442Z,15.60
2017-07-05T03:01:26.882Z,15.60
2017-07-05T03:03:55.095Z,15.50
2017-07-05T03:06:22.543Z,15.50
2017-07-05T03:08:49.983Z,15.50
2017-07-05T03:11:17.424Z,15.40
2017-07-05T03:13:45.638Z,15.10
2017-07-05T03:16:13.092Z,15.00
2017-07-05T03:18:40.547Z,15.10
2017-07-05T03:21:07.979Z,15.20
2017-07-05T03:23:35.462Z,15.20
2017-07-05T03:26:02.903Z,15.20
2017-07-05T03:28:30.342Z,15.10
2017-07-05T03:30:58.548Z,15.10
2017-07-05T03:33:25.988Z,15.10
2017-07-05T03:35:53.432Z,15.10
2017-07-05T03:38:20.866Z,14.90
2017-07-05T03:40:49.090Z,15.10
2017-07-05T03:43:16.532Z,15.00
2017-07-05T03:45:43.979Z,15.20
2017-07-05T03:48:11.420Z,15.20
2017-07-05T03:50:38.884Z,15.20
2017-07-05T03:53:06.385Z,15.20
2017-07-05T03:55:33.827Z,15.40
2017-07-05T03:58:01.283Z,15.40
2017-07-05T04:00:28.723Z,15.30
2017-07-05T04:02:56.171Z,15.30
2017-07-05T04:05:23.615Z,15.20
2017-07-05T04:07:51.823Z,15.50
2017-07-05T04:10:19.275Z,15.40
2017-07-05T04:12:46.715Z,15.50
2017-07-05T04:15:14.159Z,15.60
2017-07-05T04:17:42.391Z,15.80
2017-07-05T04:20:09.836Z,15.70
2017-07-05T04:22:37.280Z,15.80
2017-07-05T04:25:04.723Z,16.00
2017-07-05T04:27:32.161Z,16.20
2017-07-05T04:29:59.623Z,16.40
2017-07-05T04:32:27.080Z,16.60
2017-07-05T04:34:55.276Z,17.70
2017-07-05T04:37:22.723Z,17.70
2017-07-05T04:39:50.168Z,18.30
2017-07-05T04:42:17.608Z,19.00
2017-07-05T04:44:45.845Z,20.40
2017-07-05T04:47:13.301Z,20.40
2017-07-05T04:49:40.744Z,21.00
2017-07-05T04:52:08.195Z,21.40
2017-07-05T04:54:35.644Z,21.90
2017-07-05T04:57:03.099Z,22.30
2017-07-05T04:59:30.539Z,22.50
2017-07-05T05:01:57.993Z,22.70
2017-07-05T05:04:25.431Z,22.70
2017-07-05T05:06:53.644Z,22.50
2017-07-05T05:09:21.083Z,22.50
2017-07-05T05:11:48.555Z,22.10
2017-07-05T05:14:15.996Z,22.00
2017-07-05T05:16:43.443Z,22.20
2017-07-05T05:19:10.895Z,22.70
2017-07-05T05:21:39.096Z,24.20
2017-07-05T05:24:06.552Z,24.20
2017-07-05T05:26:33.995Z,24.80
2017-07-05T05:29:01.446Z,25.40
2017-07-05T05:31:28.885Z,25.70
2017-07-05T05:33:57.122Z,26.50
2017-07-05T05:36:24.571Z,26.50
2017-07-05T05:38:52.040Z,26.70
2017-07-05T05:41:19.491Z,26.90
2017-07-05T05:43:46.931Z,26.80
2017-07-05T05:46:14.383Z,27.00
2017-07-05T05:48:41.831Z,27.10
2017-07-05T05:51:09.288Z,27.30
2017-07-05T05:53:36.724Z,27.80
2017-07-05T05:56:04.170Z,28.50
2017-07-05T05:58:31.614Z,29.00
2017-07-05T06:00:59.059Z,29.60
2017-07-05T06:03:26.521Z,29.90
2017-07-05T06:05:54.780Z,29.40
2017-07-05T06:08:22.238Z,29.30
2017-07-05T06:10:49.683Z,29.30
2017-07-05T06:13:17.140Z,29.40
2017-07-05T06:15:44.590Z,30.00
2017-07-05T06:18:12.047Z,29.80
2017-07-05T06:20:39.496Z,30.40
2017-07-05T06:23:06.936Z,30.70
2017-07-05T06:25:34.384Z,31.10
2017-07-05T06:28:01.841Z,31.90
2017-07-05T06:30:29.279Z,32.00
2017-07-05T06:32:56.980Z,32.70
2017-07-05T06:35:24.435Z,33.20
2017-07-05T06:37:51.875Z,33.30
2017-07-05T06:40:19.331Z,33.40
2017-07-05T06:42:46.782Z,32.50
2017-07-05T06:45:14.225Z,32.80
2017-07-05T06:47:41.664Z,33.10
2017-07-05T06:50:09.879Z,33.60
2017-07-05T06:52:37.324Z,33.60
2017-07-05T06:55:04.776Z,33.90
2017-07-05T06:57:32.220Z,32.50
2017-07-05T06:59:59.697Z,33.60
2017-07-05T07:02:27.136Z,34.30
2017-07-05T07:04:54.580Z,34.70
2017-07-05T07:07:22.031Z,33.80
2017-07-05T07:09:50.242Z,33.70
2017-07-05T07:12:17.698Z,33.60
2017-07-05T07:14:45.150Z,32.70
2017-07-05T07:17:12.602Z,32.60
2017-07-05T07:19:40.047Z,33.90
2017-07-05T07:22:07.522Z,34.90
2017-07-05T07:24:34.973Z,35.40
2017-07-05T07:27:02.412Z,35.30
2017-07-05T07:29:29.856Z,35.00
2017-07-05T07:31:58.064Z,33.40
2017-07-05T07:34:25.520Z,33.30
2017-07-05T07:36:52.963Z,32.00
2017-07-05T07:39:20.411Z,33.20
2017-07-05T07:41:47.851Z,34.40
2017-07-05T07:44:16.095Z,35.00
2017-07-05T07:46:43.544Z,35.00
2017-07-05T07:49:10.995Z,33.70
2017-07-05T07:51:38.444Z,28.20
2017-07-05T07:54:05.889Z,29.10
2017-07-05T07:56:33.342Z,31.00
2017-07-05T07:59:00.807Z,32.00
2017-07-05T08:01:28.259Z,32.20
2017-07-05T08:03:55.718Z,29.60
2017-07-05T08:06:23.168Z,28.60
2017-07-05T08:08:50.632Z,27.90
2017-07-05T08:11:18.079Z,30.40
2017-07-05T08:13:45.523Z,29.30
2017-07-05T08:16:12.958Z,27.30
2017-07-05T08:18:41.167Z,29.10
2017-07-05T08:21:08.629Z,29.10
2017-07-05T08:23:36.080Z,30.60
2017-07-05T08:26:03.530Z,31.60
2017-07-05T08:28:30.977Z,32.50
2017-07-05T08:30:58.420Z,32.80
2017-07-05T08:33:25.864Z,33.20
2017-07-05T08:35:54.075Z,31.80
2017-07-05T08:38:21.549Z,31.80
2017-07-05T08:40:48.992Z,31.40
2017-07-05T08:43:16.432Z,29.20
2017-07-05T08:45:43.883Z,29.40
2017-07-05T08:48:11.323Z,30.70
2017-07-05T08:50:38.773Z,32.20
2017-07-05T08:53:06.221Z,32.50
2017-07-05T08:55:34.448Z,28.00
2017-07-05T08:58:01.904Z,27.90
2017-07-05T09:00:29.361Z,28.70
2017-07-05T09:02:58.075Z,31.00
2017-07-05T09:05:25.535Z,32.60
2017-07-05T09:07:52.987Z,30.30
2017-07-05T09:10:20.459Z,31.10
2017-07-05T09:12:48.674Z,33.80
2017-07-05T09:15:16.112Z,33.80
2017-07-05T09:17:43.563Z,33.90
2017-07-05T09:20:11.012Z,33.60
2017-07-05T09:22:39.227Z,34.10
2017-07-05T09:25:06.693Z,34.10
2017-07-05T09:27:34.144Z,32.10
2017-07-05T09:30:01.604Z,31.10
2017-07-05T09:32:29.068Z,31.60
2017-07-05T09:34:56.513Z,32.70
2017-07-05T09:37:23.967Z,33.90
2017-07-05T09:39:51.421Z,34.50
2017-07-05T09:42:18.891Z,35.20
2017-07-05T09:44:46.336Z,35.80
2017-07-05T09:47:13.780Z,33.50
2017-07-05T09:49:41.228Z,34.50
2017-07-05T09:52:08.667Z,34.90
2017-07-05T09:54:36.878Z,35.50
2017-07-05T09:57:04.329Z,35.60
2017-07-05T09:59:31.787Z,35.00
2017-07-05T10:01:59.237Z,35.50
2017-07-05T10:04:26.688Z,33.40
2017-07-05T10:06:54.127Z,33.80
2017-07-05T10:09:21.580Z,34.90
2017-07-05T10:11:49.028Z,35.40
2017-07-05T10:14:17.245Z,35.20
2017-07-05T10:16:44.699Z,35.20
2017-07-05T10:19:12.169Z,35.70
2017-07-05T10:21:39.609Z,36.10
2017-07-05T10:24:07.067Z,36.70
2017-07-05T10:26:34.525Z,37.00
2017-07-05T10:29:01.980Z,35.50
2017-07-05T10:31:29.436Z,32.10
2017-07-05T10:33:56.891Z,30.90
2017-07-05T10:36:24.347Z,32.00
2017-07-05T10:38:51.804Z,33.80
2017-07-05T10:41:19.263Z,34.40
2017-07-05T10:43:46.704Z,35.20
2017-07-05T10:46:14.160Z,35.00
2017-07-05T10:48:41.598Z,34.50
2017-07-05T10:51:09.039Z,34.50
2017-07-05T10:53:37.268Z,34.90
2017-07-05T10:56:04.699Z,34.80
2017-07-05T10:58:32.151Z,32.80
2017-07-05T11:00:59.591Z,33.00
2017-07-05T11:03:27.815Z,34.70
2017-07-05T11:05:55.255Z,34.70
2017-07-05T11:08:22.712Z,34.50
2017-07-05T11:10:50.153Z,34.10
2017-07-05T11:13:17.601Z,33.20
2017-07-05T11:15:45.036Z,33.20
2017-07-05T11:18:12.475Z,34.50
2017-07-05T11:20:39.919Z,35.20
2017-07-05T11:23:07.386Z,35.10
2017-07-05T11:25:34.831Z,34.70
2017-07-05T11:28:02.280Z,35.20
2017-07-05T11:30:29.728Z,32.30
2017-07-05T11:32:57.173Z,31.60
2017-07-05T11:35:24.627Z,33.10
2017-07-05T11:37:52.084Z,34.10
2017-07-05T11:40:19.527Z,34.70
2017-07-05T11:42:46.977Z,34.50
2017-07-05T11:45:14.420Z,35.20
2017-07-05T11:47:42.640Z,35.50
2017-07-05T11:50:10.084Z,35.50
2017-07-05T11:52:37.540Z,35.00
2017-07-05T11:55:04.995Z,35.30
2017-07-05T11:57:32.456Z,33.20
2017-07-05T11:59:59.924Z,33.20
2017-07-05T12:02:27.390Z,32.90
2017-07-05T12:04:54.840Z,32.90
2017-07-05T12:07:22.279Z,33.60
2017-07-05T12:09:49.735Z,34.20
2017-07-05T12:12:17.188Z,34.10
2017-07-05T12:14:44.647Z,34.10
2017-07-05T12:17:12.091Z,33.60
2017-07-05T12:19:39.536Z,33.00
2017-07-05T12:22:06.975Z,31.40
2017-07-05T12:24:34.428Z,32.50
2017-07-05T12:27:02.632Z,31.50
2017-07-05T12:29:30.077Z,31.50
2017-07-05T12:31:57.515Z,31.90
2017-07-05T12:34:25.751Z,30.70
2017-07-05T12:36:53.200Z,30.70
2017-07-05T12:39:20.643Z,31.40
2017-07-05T12:41:48.096Z,32.00
2017-07-05T12:44:15.527Z,29.90
2017-07-05T12:46:42.974Z,29.70
2017-07-05T12:49:11.183Z,31.60
2017-07-05T12:51:38.645Z,31.50
2017-07-05T12:54:06.097Z,32.10
2017-07-05T12:56:33.551Z,32.20
2017-07-05T12:59:00.995Z,32.60
2017-07-05T13:01:28.451Z,31.20
2017-07-05T13:03:55.891Z,31.70
2017-07-05T13:06:23.355Z,30.80
2017-07-05T13:08:50.791Z,30.60
2017-07-05T13:11:19.008Z,31.50
2017-07-05T13:13:46.489Z,31.50
2017-07-05T13:16:13.936Z,32.00
2017-07-05T13:18:41.392Z,31.80
2017-07-05T13:21:08.833Z,32.40
2017-07-05T13:23:36.287Z,32.60
2017-07-05T13:26:03.733Z,32.50
2017-07-05T13:28:31.179Z,32.60
2017-07-05T13:30:58.624Z,32.60
2017-07-05T13:33:26.831Z,32.40
2017-07-05T13:35:54.312Z,32.40
2017-07-05T13:38:21.782Z,32.90
2017-07-05T13:40:49.227Z,32.70
2017-07-05T13:43:16.667Z,32.40
2017-07-05T13:45:44.115Z,32.40
2017-07-05T13:48:11.568Z,32.80
2017-07-05T13:50:39.024Z,32.10
2017-07-05T13:53:06.480Z,32.60
2017-07-05T13:55:33.936Z,32.30
2017-07-05T13:58:01.402Z,32.20
2017-07-05T14:00:28.856Z,31.60
2017-07-05T14:02:56.309Z,32.00
2017-07-05T14:05:23.756Z,32.50
2017-07-05T14:07:51.219Z,32.80
2017-07-05T14:10:18.660Z,32.60
2017-07-05T14:12:46.108Z,32.50
2017-07-05T14:15:13.543Z,32.70
2017-07-05T14:17:41.760Z,31.90
2017-07-05T14:20:09.208Z,31.90
2017-07-05T14:22:36.684Z,32.20
2017-07-05T14:25:04.127Z,31.30
2017-07-05T14:27:31.573Z,31.70
2017-07-05T14:29:59.027Z,31.80
2017-07-05T14:32:26.476Z,31.30
2017-07-05T14:34:53.920Z,31.60
2017-07-05T14:37:21.367Z,31.50
2017-07-05T14:39:49.584Z,31.70
2017-07-05T14:42:17.037Z,31.70
2017-07-05T14:44:44.490Z,31.80
2017-07-05T14:47:11.924Z,32.20
2017-07-05T14:49:39.372Z,32.20
2017-07-05T14:52:07.579Z,32.20
2017-07-05T14:54:35.059Z,32.20
2017-07-05T14:57:02.495Z,32.10
2017-07-05T14:59:29.933Z,32.10
2017-07-05T15:01:57.479Z,31.90
2017-07-05T15:04:24.918Z,31.40
2017-07-05T15:06:53.134Z,31.70
2017-07-05T15:09:20.574Z,31.70
2017-07-05T15:11:48.026Z,31.80
2017-07-05T15:14:15.468Z,32.00
2017-07-05T15:16:43.684Z,31.70
2017-07-05T15:19:11.137Z,31.70
2017-07-05T15:21:38.591Z,31.60
2017-07-05T15:24:06.048Z,31.60
2017-07-05T15:26:33.519Z,31.60
2017-07-05T15:29:00.959Z,31.70
2017-07-05T15:31:28.411Z,31.70
2017-07-05T15:33:55.856Z,31.60
2017-07-05T15:36:23.297Z,31.50
2017-07-05T15:38:51.506Z,31.70
2017-07-05T15:41:19.268Z,31.70
2017-07-05T15:43:46.725Z,31.50
2017-07-05T15:46:14.180Z,31.50
2017-07-05T15:48:41.632Z,30.90
2017-07-05T15:51:09.075Z,31.10
2017-07-05T15:53:36.519Z,31.30
2017-07-05T15:56:03.971Z,31.10
2017-07-05T15:58:32.176Z,31.30
2017-07-05T16:00:59.656Z,31.30
2017-07-05T16:03:27.104Z,31.40
2017-07-05T16:05:54.556Z,31.50
2017-07-05T16:08:22.004Z,31.40
2017-07-05T16:10:49.481Z,31.20
2017-07-05T16:13:16.931Z,31.10
2017-07-05T16:15:44.372Z,31.10
2017-07-05T16:18:11.825Z,31.20
2017-07-05T16:20:39.350Z,31.10
2017-07-05T16:23:06.806Z,31.20
2017-07-05T16:25:35.016Z,31.10
2017-07-05T16:28:02.503Z,31.10
2017-07-05T16:30:29.939Z,31.20
2017-07-05T16:32:57.383Z,30.50
2017-07-05T16:35:24.833Z,30.60
2017-07-05T16:37:52.295Z,30.60
2017-07-05T16:40:19.751Z,30.40
2017-07-05T16:42:47.207Z,30.30
2017-07-05T16:45:14.665Z,30.20
2017-07-05T16:47:42.120Z,30.30
2017-07-05T16:50:09.577Z,30.50
2017-07-05T16:52:37.022Z,30.40
2017-07-05T16:55:04.468Z,30.20
2017-07-05T16:57:31.908Z,29.90
2017-07-05T17:00:00.131Z,29.70
2017-07-05T17:02:27.581Z,29.80
2017-07-05T17:04:55.036Z,30.00
2017-07-05T17:07:22.481Z,30.00
2017-07-05T17:09:49.931Z,29.90
2017-07-05T17:12:17.371Z,29.60
2017-07-05T17:14:44.844Z,29.70
2017-07-05T17:17:12.296Z,29.80
2017-07-05T17:19:39.744Z,29.90
2017-07-05T17:22:07.190Z,29.80
2017-07-05T17:24:35.404Z,29.50
2017-07-05T17:27:02.851Z,29.50
2017-07-05T17:29:30.296Z,29.50
2017-07-05T17:31:57.753Z,29.60
2017-07-05T17:34:25.248Z,29.60
2017-07-05T17:36:52.708Z,29.60
2017-07-05T17:39:20.170Z,29.50
2017-07-05T17:41:47.643Z,29.20
2017-07-05T17:44:15.847Z,29.10
2017-07-05T17:46:43.289Z,29.10
2017-07-05T17:49:10.756Z,29.10
2017-07-05T17:51:38.195Z,29.00
2017-07-05T17:54:05.647Z,28.80
2017-07-05T17:56:33.862Z,28.60
2017-07-05T17:59:01.320Z,28.40
2017-07-05T18:01:28.763Z,28.40
2017-07-05T18:03:56.206Z,28.40
2017-07-05T18:06:23.647Z,28.30
2017-07-05T18:08:51.868Z,28.00
2017-07-05T18:11:19.310Z,28.00
2017-07-05T18:13:46.775Z,28.10
2017-07-05T18:16:14.219Z,28.00
2017-07-05T18:18:41.659Z,28.10
2017-07-05T18:21:09.107Z,28.20
2017-07-05T18:23:37.319Z,28.20
2017-07-05T18:26:04.775Z,28.20
2017-07-05T18:28:32.215Z,28.20
2017-07-05T18:30:59.660Z,28.20
2017-07-05T18:33:27.103Z,28.10
2017-07-05T18:35:54.560Z,28.00
2017-07-05T18:38:22.777Z,27.90
2017-07-05T18:40:50.243Z,27.90
2017-07-05T18:43:17.696Z,27.90
2017-07-05T18:45:45.141Z,27.70
2017-07-05T18:48:12.605Z,27.70
2017-07-05T18:50:40.057Z,27.60
2017-07-05T18:53:07.508Z,26.70
2017-07-05T18:55:34.968Z,26.50
2017-07-05T18:58:02.423Z,26.70
2017-07-05T19:00:29.874Z,26.60
2017-07-05T19:02:57.315Z,26.50
2017-07-05T19:05:24.759Z,26.30
2017-07-05T19:07:52.208Z,26.00
2017-07-05T19:10:20.419Z,24.70
2017-07-05T19:12:47.893Z,24.70
2017-07-05T19:15:15.339Z,24.50
2017-07-05T19:17:42.783Z,24.40
2017-07-05T19:20:10.233Z,24.30
2017-07-05T19:22:37.671Z,24.10
2017-07-05T19:25:05.116Z,23.90
2017-07-05T19:27:33.331Z,23.80
2017-07-05T19:30:00.787Z,23.70
2017-07-05T19:32:28.246Z,23.70
2017-07-05T19:34:55.700Z,23.80
2017-07-05T19:37:23.156Z,23.90
2017-07-05T19:39:50.619Z,23.90
2017-07-05T19:42:18.073Z,23.70
2017-07-05T19:44:45.533Z,23.40
2017-07-05T19:47:12.984Z,23.20
2017-07-05T19:49:40.423Z,23.10
2017-07-05T19:52:07.871Z,23.20
2017-07-05T19:54:35.316Z,23.30
2017-07-05T19:57:02.761Z,23.20
2017-07-05T19:59:30.199Z,23.20
2017-07-05T20:01:57.652Z,23.10
2017-07-05T20:04:25.095Z,23.20
2017-07-05T20:06:52.544Z,23.10
2017-07-05T20:09:20.002Z,23.00
2017-07-05T20:11:47.459Z,22.90
2017-07-05T20:14:14.928Z,22.80
2017-07-05T20:16:42.397Z,22.80
2017-07-05T20:19:09.847Z,22.70
2017-07-05T20:21:37.305Z,22.60
2017-07-05T20:24:04.756Z,22.30
2017-07-05T20:26:32.208Z,22.10
2017-07-05T20:28:59.680Z,22.10
2017-07-05T20:31:27.120Z,21.70
2017-07-05T20:33:54.571Z,21.60
2017-07-05T20:36:22.006Z,21.50
2017-07-05T20:38:49.461Z,21.40
2017-07-05T20:41:16.912Z,21.50
2017-07-05T20:43:44.731Z,21.70
2017-07-05T20:46:12.209Z,21.60
2017-07-05T20:48:39.702Z,21.70
2017-07-05T20:51:07.523Z,21.60
2017-07-05T20:53:35.809Z,21.70
2017-07-05T20:56:04.059Z,21.50
2017-07-05T20:58:31.743Z,21.50
2017-07-05T21:01:00.015Z,21.40
2017-07-05T21:03:28.306Z,21.30
2017-07-05T21:05:56.533Z,21.10
2017-07-05T21:08:24.073Z,21.10
2017-07-05T21:10:51.561Z,20.70
2017-07-05T21:13:19.046Z,20.80
2017-07-05T21:15:46.534Z,20.90
2017-07-05T21:18:14.016Z,20.70
2017-07-05T21:20:41.517Z,20.60
2017-07-05T21:23:09.757Z,20.50
2017-07-05T21:25:37.337Z,20.50
2017-07-05T21:28:05.585Z,20.60
2017-07-05T21:30:33.060Z,20.60
2017-07-05T21:33:00.545Z,20.70
2017-07-05T21:35:28.259Z,20.60
2017-07-05T21:37:55.756Z,20.40
2017-07-05T21:40:23.237Z,20.40
2017-07-05T21:42:50.721Z,20.30
2017-07-05T21:45:18.211Z,20.00
2017-07-05T21:47:45.719Z,19.90
2017-07-05T21:50:13.566Z,19.80
2017-07-05T21:52:41.050Z,19.60
2017-07-05T21:55:08.533Z,19.40
2017-07-05T21:57:36.015Z,19.30
2017-07-05T22:00:04.271Z,19.50
2017-07-05T22:02:31.758Z,19.50
2017-07-05T22:04:59.245Z,19.50
2017-07-05T22:07:26.725Z,19.50
2017-07-05T22:09:54.213Z,19.50
2017-07-05T22:12:22.462Z,19.40
2017-07-05T22:14:50.816Z,19.40
2017-07-05T22:17:18.293Z,19.40
2017-07-05T22:19:45.764Z,19.40
2017-07-05T22:22:13.245Z,19.40
2017-07-05T22:24:41.483Z,19.30
2017-07-05T22:27:08.972Z,19.30
2017-07-05T22:29:37.223Z,19.10
2017-07-05T22:32:04.722Z,19.10
2017-07-05T22:34:32.204Z,19.20
2017-07-05T22:36:59.693Z,19.30
2017-07-05T22:39:27.168Z,19.30
2017-07-05T22:41:55.421Z,19.50
2017-07-05T22:44:22.903Z,19.40
2017-07-05T22:46:51.164Z,19.40
2017-07-05T22:49:18.640Z,19.40
2017-07-05T22:51:46.885Z,19.50
2017-07-05T22:54:14.374Z,19.50
2017-07-05T22:56:41.861Z,19.50
2017-07-05T22:59:09.353Z,19.50
2017-07-05T23:01:36.839Z,19.30
2017-07-05T23:04:05.093Z,19.40
2017-07-05T23:06:32.569Z,19.40
2017-07-05T23:09:00.826Z,19.40
2017-07-05T23:11:28.301Z,19.40
2017-07-05T23:13:56.564Z,19.10
2017-07-05T23:16:24.042Z,19.10
2017-07-05T23:18:52.289Z,19.10
2017-07-05T23:21:19.758Z,19.10
2017-07-05T23:23:47.975Z,19.00
2017-07-05T23:26:15.432Z,19.00
2017-07-05T23:28:42.876Z,18.90
2017-07-05T23:31:10.328Z,18.90
2017-07-05T23:33:37.768Z,19.00
2017-07-05T23:36:05.991Z,19.00
2017-07-05T23:38:33.431Z,19.00
2017-07-05T23:41:00.900Z,19.00
2017-07-05T23:43:28.346Z,19.10
2017-07-05T23:45:55.803Z,19.10
2017-07-05T23:48:23.259Z,19.00
2017-07-05T23:50:50.710Z,19.10
2017-07-05T23:53:18.171Z,19.10
2017-07-05T23:55:45.618Z,19.10
2017-07-05T23:58:13.058Z,19.00
